createdAt,value
2023-05-22T00:00:24.812Z,101611.59
2023-05-22T00:02:52.490Z,101616.66
2023-05-22T00:05:20.472Z,101607.19
2023-05-22T00:07:47.016Z,101600.16
2023-05-22T00:10:13.594Z,101600.97
2023-05-22T00:12:40.274Z,101596.03
2023-05-22T00:15:07.661Z,101591.72
2023-05-22T00:17:34.623Z,101590.78
2023-05-22T00:20:08.835Z,101593.59
2023-05-22T00:22:38.082Z,101585.81
2023-05-22T00:25:05.689Z,101581.22
2023-05-22T00:27:32.995Z,101567.06
2023-05-22T00:29:59.982Z,101567.34
2023-05-22T00:32:27.147Z,101566.31
2023-05-22T00:34:53.721Z,101569.03
2023-05-22T00:37:20.332Z,101564.81
2023-05-22T00:39:47.015Z,101567.72
2023-05-22T00:42:13.730Z,101566.03
2023-05-22T00:44:41.779Z,101561.63
2023-05-22T00:47:08.214Z,101557.41
2023-05-22T00:49:34.693Z,101559.09
2023-05-22T00:52:01.534Z,101555.56
2023-05-22T00:54:29.134Z,101553.66
2023-05-22T00:56:55.734Z,101551.88
2023-05-22T00:59:22.387Z,101546.72
2023-05-22T01:01:49.185Z,101545.78
2023-05-22T01:04:18.408Z,101542.16
2023-05-22T01:06:47.409Z,101543.81
2023-05-22T01:09:17.244Z,101540.44
2023-05-22T01:12:01.661Z,101541.09
2023-05-22T01:14:44.104Z,101535.19
2023-05-22T01:17:38.044Z,101528.06
2023-05-22T01:20:10.693Z,101523.66
2023-05-22T01:22:43.361Z,101524.59
2023-05-22T01:25:29.029Z,101523.66
2023-05-22T01:28:33.303Z,101520.94
2023-05-22T01:31:09.169Z,101521.91
2023-05-22T01:33:45.550Z,101529.03
2023-05-22T01:36:15.696Z,101523.66
2023-05-22T01:38:43.168Z,101525.44
2023-05-22T01:41:09.898Z,101528.91
2023-05-22T01:43:36.771Z,101520.03
2023-05-22T01:46:03.976Z,101518.41
2023-05-22T01:48:30.457Z,101513.16
2023-05-22T01:51:05.419Z,101506.25
2023-05-22T01:53:45.036Z,101512.22
2023-05-22T01:56:20.923Z,101509.97
2023-05-22T01:58:55.263Z,101507.69
2023-05-22T02:01:22.934Z,101505.28
2023-05-22T02:03:56.549Z,101499.09
2023-05-22T02:06:25.850Z,101498.53
2023-05-22T02:08:53.512Z,101491.88
2023-05-22T02:11:22.597Z,101494.56
2023-05-22T02:13:49.529Z,101492.06
2023-05-22T02:16:16.767Z,101480.72
2023-05-22T02:18:43.705Z,101486.91
2023-05-22T02:21:10.319Z,101491.13
2023-05-22T02:23:37.917Z,101488.94
2023-05-22T02:26:05.135Z,101492.59
2023-05-22T02:28:31.850Z,101483.06
2023-05-22T02:30:58.368Z,101474.25
2023-05-22T02:33:24.876Z,101483.16
2023-05-22T02:35:51.375Z,101472.88
2023-05-22T02:38:17.836Z,101478.34
2023-05-22T02:40:44.407Z,101479.41
2023-05-22T02:43:10.883Z,101478.47
2023-05-22T02:45:37.320Z,101476.88
2023-05-22T02:48:04.125Z,101481.53
2023-05-22T02:50:30.608Z,101476.03
2023-05-22T02:52:57.050Z,101470.03
2023-05-22T02:55:23.556Z,101467.41
2023-05-22T02:57:49.995Z,101468.41
2023-05-22T03:00:17.016Z,101463.09
2023-05-22T03:02:43.572Z,101467.56
2023-05-22T03:05:10.236Z,101468.59
2023-05-22T03:07:37.091Z,101468.69
2023-05-22T03:10:03.739Z,101460.75
2023-05-22T03:12:30.509Z,101462.59
2023-05-22T03:14:57.066Z,101458.41
2023-05-22T03:17:23.549Z,101458.41
2023-05-22T03:19:50.037Z,101462.69
2023-05-22T03:22:18.555Z,101464.47
2023-05-22T03:24:45.774Z,101469.63
2023-05-22T03:27:15.994Z,101462.59
2023-05-22T03:29:42.625Z,101466.69
2023-05-22T03:32:09.110Z,101461.91
2023-05-22T03:34:37.054Z,101454.97
2023-05-22T03:37:03.674Z,101464.50
2023-05-22T03:39:30.330Z,101464.22
2023-05-22T03:41:56.945Z,101462.63
2023-05-22T03:44:23.467Z,101466.66
2023-05-22T03:46:49.948Z,101469.28
2023-05-22T03:49:16.460Z,101473.13
2023-05-22T03:51:43.056Z,101471.94
2023-05-22T03:54:09.520Z,101468.50
2023-05-22T03:56:36.023Z,101472.72
2023-05-22T03:59:02.617Z,101469.34
2023-05-22T04:01:29.826Z,101460.72
2023-05-22T04:03:56.374Z,101464.53
2023-05-22T04:06:23.433Z,101463.91
2023-05-22T04:08:49.994Z,101465.09
2023-05-22T04:11:16.617Z,101462.56
2023-05-22T04:13:43.275Z,101471.63
2023-05-22T04:16:10.411Z,101461.81
2023-05-22T04:18:36.965Z,101465.38
2023-05-22T04:21:03.914Z,101466.22
2023-05-22T04:23:30.555Z,101468.56
2023-05-22T04:25:58.260Z,101475.25
2023-05-22T04:28:24.770Z,101472.25
2023-05-22T04:30:51.358Z,101484.59
2023-05-22T04:33:18.073Z,101496.22
2023-05-22T04:35:44.683Z,101511.75
2023-05-22T04:38:11.240Z,101495.81
2023-05-22T04:40:37.920Z,101502.69
2023-05-22T04:43:04.797Z,101511.47
2023-05-22T04:45:31.292Z,101511.19
2023-05-22T04:47:58.103Z,101519.75
2023-05-22T04:50:25.011Z,101514.16
2023-05-22T04:52:51.616Z,101517.16
2023-05-22T04:55:19.086Z,101520.72
2023-05-22T04:57:45.897Z,101529.25
2023-05-22T05:00:14.410Z,101528.31
2023-05-22T05:02:41.167Z,101526.72
2023-05-22T05:05:08.094Z,101528.56
2023-05-22T05:07:37.581Z,101528.50
2023-05-22T05:10:04.436Z,101536.16
2023-05-22T05:12:30.903Z,101527.38
2023-05-22T05:14:57.317Z,101527.19
2023-05-22T05:17:23.961Z,101525.16
2023-05-22T05:19:50.451Z,101520.66
2023-05-22T05:22:16.986Z,101520.41
2023-05-22T05:24:43.494Z,101525.44
2023-05-22T05:27:10.089Z,101522.66
2023-05-22T05:29:36.910Z,101509.19
2023-05-22T05:32:04.070Z,101516.03
2023-05-22T05:34:30.702Z,101513.31
2023-05-22T05:36:57.386Z,101517.25
2023-05-22T05:39:23.934Z,101510.69
2023-05-22T05:41:50.531Z,101516.44
2023-05-22T05:44:17.072Z,101512.41
2023-05-22T05:46:43.624Z,101517.03
2023-05-22T05:49:11.921Z,101514.56
2023-05-22T05:51:38.840Z,101512.09
2023-05-22T05:54:05.924Z,101500.59
2023-05-22T05:56:32.884Z,101509.56
2023-05-22T05:58:59.426Z,101510.75
2023-05-22T06:01:26.951Z,101505.78
2023-05-22T06:03:53.836Z,101500.34
2023-05-22T06:06:20.699Z,101496.06
2023-05-22T06:08:47.243Z,101506.84
2023-05-22T06:11:13.765Z,101502.03
2023-05-22T06:13:40.313Z,101502.47
2023-05-22T06:16:07.167Z,101496.06
2023-05-22T06:18:33.796Z,101502.22
2023-05-22T06:21:00.286Z,101505.09
2023-05-22T06:23:26.743Z,101501.00
2023-05-22T06:25:53.982Z,101507.50
2023-05-22T06:28:20.513Z,101516.47
2023-05-22T06:30:47.292Z,101517.72
2023-05-22T06:33:14.537Z,101528.47
2023-05-22T06:35:42.030Z,101524.06
2023-05-22T06:38:08.516Z,101525.34
2023-05-22T06:40:34.996Z,101525.94
2023-05-22T06:43:01.785Z,101525.53
2023-05-22T06:45:28.260Z,101525.63
2023-05-22T06:47:55.046Z,101532.09
2023-05-22T06:50:22.297Z,101537.22
2023-05-22T06:52:49.348Z,101530.78
2023-05-22T06:55:16.379Z,101526.47
2023-05-22T06:57:42.873Z,101523.81
2023-05-22T07:00:12.188Z,101534.22
2023-05-22T07:02:39.606Z,101539.75
2023-05-22T07:05:06.816Z,101535.84
2023-05-22T07:07:33.569Z,101536.53
2023-05-22T07:10:00.228Z,101538.63
2023-05-22T07:12:27.658Z,101537.44
2023-05-22T07:14:54.780Z,101543.44
2023-05-22T07:17:21.860Z,101539.50
2023-05-22T07:19:48.968Z,101544.88
2023-05-22T07:22:15.741Z,101542.38
2023-05-22T07:24:43.236Z,101537.28
2023-05-22T07:27:11.242Z,101533.94
2023-05-22T07:29:38.065Z,101544.75
2023-05-22T07:32:04.920Z,101545.97
2023-05-22T07:34:34.357Z,101544.66
2023-05-22T07:37:07.166Z,101548.75
2023-05-22T07:39:33.727Z,101548.03
2023-05-22T07:42:01.558Z,101541.34
2023-05-22T07:44:28.537Z,101535.25
2023-05-22T07:46:55.751Z,101544.03
2023-05-22T07:49:23.605Z,101532.03
2023-05-22T07:51:50.108Z,101542.69
2023-05-22T07:54:18.086Z,101544.84
2023-05-22T07:56:45.779Z,101548.13
2023-05-22T07:59:12.622Z,101555.28
2023-05-22T08:01:41.687Z,101550.72
2023-05-22T08:04:08.743Z,101542.19
2023-05-22T08:06:35.507Z,101542.28
2023-05-22T08:09:02.646Z,101553.34
2023-05-22T08:11:29.197Z,101551.00
2023-05-22T08:13:56.226Z,101549.28
2023-05-22T08:16:23.227Z,101557.75
2023-05-22T08:18:50.295Z,101564.09
2023-05-22T08:21:16.900Z,101557.66
2023-05-22T08:23:43.498Z,101556.28
2023-05-22T08:26:10.007Z,101565.47
2023-05-22T08:28:37.135Z,101559.88
2023-05-22T08:31:03.724Z,101562.91
2023-05-22T08:33:30.268Z,101555.78
2023-05-22T08:35:56.769Z,101551.56
2023-05-22T08:38:23.222Z,101551.44
2023-05-22T08:40:51.040Z,101546.72
2023-05-22T08:43:20.597Z,101542.31
2023-05-22T08:45:55.982Z,101548.59
2023-05-22T08:48:23.797Z,101548.88
2023-05-22T08:50:58.181Z,101545.31
2023-05-22T08:53:25.751Z,101551.28
2023-05-22T08:55:53.833Z,101541.25
2023-05-22T09:00:48.121Z,101544.63
2023-05-22T09:03:15.470Z,101546.06
2023-05-22T09:05:42.321Z,101546.75
2023-05-22T09:08:19.797Z,101543.25
2023-05-22T09:10:47.333Z,101539.06
2023-05-22T09:13:25.159Z,101539.34
2023-05-22T09:15:51.651Z,101542.13
2023-05-22T09:18:18.263Z,101535.97
2023-05-22T09:20:45.069Z,101541.03
2023-05-22T09:23:20.243Z,101534.59
2023-05-22T09:25:47.692Z,101534.84
2023-05-22T09:28:14.451Z,101532.88
2023-05-22T09:30:42.617Z,101527.88
2023-05-22T09:33:12.849Z,101526.63
2023-05-22T09:35:39.779Z,101523.44
2023-05-22T09:38:06.552Z,101529.44
2023-05-22T09:40:35.268Z,101520.03
2023-05-22T09:43:07.645Z,101522.38
2023-05-22T09:45:38.240Z,101522.38
2023-05-22T09:48:05.785Z,101520.63
2023-05-22T09:50:32.860Z,101511.56
2023-05-22T09:53:04.402Z,101514.28
2023-05-22T09:55:32.116Z,101517.13
2023-05-22T09:58:04.111Z,101521.78
2023-05-22T10:00:32.700Z,101511.16
2023-05-22T10:03:05.979Z,101517.09
2023-05-22T10:05:32.970Z,101521.28
2023-05-22T10:08:09.129Z,101518.63
2023-05-22T10:10:36.852Z,101520.91
2023-05-22T10:13:08.048Z,101520.00
2023-05-22T10:15:35.891Z,101519.44
2023-05-22T10:18:03.152Z,101515.00
2023-05-22T10:20:30.312Z,101520.00
2023-05-22T10:22:57.149Z,101514.72
2023-05-22T10:25:23.776Z,101518.47
2023-05-22T10:27:53.658Z,101517.09
2023-05-22T10:30:36.502Z,101517.56
2023-05-22T10:33:14.519Z,101506.72
2023-05-22T10:35:52.826Z,101507.91
2023-05-22T10:38:50.571Z,101511.19
2023-05-22T10:41:18.207Z,101503.28
2023-05-22T10:43:48.736Z,101501.06
2023-05-22T10:46:15.532Z,101505.72
2023-05-22T10:48:47.442Z,101499.34
2023-05-22T10:51:18.068Z,101502.53
2023-05-22T10:53:47.377Z,101504.47
2023-05-22T10:56:15.532Z,101501.25
2023-05-22T10:58:56.815Z,101506.66
2023-05-22T11:01:25.956Z,101501.84
2023-05-22T11:04:00.344Z,101512.09
2023-05-22T11:06:43.072Z,101496.50
2023-05-22T11:09:32.465Z,101502.28
2023-05-22T11:12:20.532Z,101503.69
2023-05-22T11:14:50.697Z,101497.25
2023-05-22T11:17:28.099Z,101503.97
2023-05-22T11:20:18.464Z,101497.13
2023-05-22T11:22:55.578Z,101496.00
2023-05-22T11:25:22.781Z,101491.09
2023-05-22T11:27:49.632Z,101489.22
2023-05-22T11:30:17.213Z,101488.16
2023-05-22T11:32:46.133Z,101483.78
2023-05-22T11:35:17.921Z,101481.16
2023-05-22T11:37:45.092Z,101480.56
2023-05-22T11:40:17.187Z,101480.59
2023-05-22T11:42:44.243Z,101473.75
2023-05-22T11:45:11.347Z,101476.75
2023-05-22T11:47:37.972Z,101476.63
2023-05-22T11:50:06.665Z,101466.78
2023-05-22T11:52:34.551Z,101466.09
2023-05-22T11:55:01.466Z,101471.47
2023-05-22T11:57:28.374Z,101468.19
2023-05-22T11:59:54.819Z,101472.38
2023-05-22T12:02:21.435Z,101466.25
2023-05-22T12:04:47.906Z,101472.28
2023-05-22T12:07:14.374Z,101474.13
2023-05-22T12:09:42.520Z,101479.28
2023-05-22T12:12:11.413Z,101464.13
2023-05-22T12:14:38.119Z,101467.94
2023-05-22T12:17:04.770Z,101473.06
2023-05-22T12:19:31.399Z,101472.38
2023-05-22T12:21:58.774Z,101469.34
2023-05-22T12:24:25.639Z,101476.47
2023-05-22T12:26:52.990Z,101470.66
2023-05-22T12:29:22.349Z,101468.47
2023-05-22T12:31:49.277Z,101472.44
2023-05-22T12:34:18.394Z,101472.31
2023-05-22T12:36:47.102Z,101470.28
2023-05-22T12:39:18.886Z,101464.81
2023-05-22T12:41:46.428Z,101470.78
2023-05-22T12:44:15.597Z,101463.69
2023-05-22T12:46:42.255Z,101459.22
2023-05-22T12:49:08.970Z,101461.69
2023-05-22T12:51:35.431Z,101458.94
2023-05-22T12:54:02.623Z,101468.16
2023-05-22T12:56:29.923Z,101473.34
2023-05-22T12:58:57.525Z,101467.09
2023-05-22T13:01:24.657Z,101466.56
2023-05-22T13:03:52.716Z,101463.59
2023-05-22T13:06:19.885Z,101471.91
2023-05-22T13:08:46.370Z,101484.19
2023-05-22T13:11:12.858Z,101488.72
2023-05-22T13:13:39.859Z,101487.13
2023-05-22T13:16:06.368Z,101491.75
2023-05-22T13:18:32.798Z,101489.81
2023-05-22T13:21:00.248Z,101490.56
2023-05-22T13:23:26.800Z,101497.66
2023-05-22T13:25:53.321Z,101487.59
2023-05-22T13:28:19.830Z,101486.22
2023-05-22T13:30:46.254Z,101494.06
2023-05-22T13:33:13.809Z,101495.19
2023-05-22T13:35:40.596Z,101489.75
2023-05-22T13:38:07.699Z,101492.66
2023-05-22T13:40:34.184Z,101488.06
2023-05-22T13:43:00.691Z,101487.91
2023-05-22T13:45:27.789Z,101500.88
2023-05-22T13:47:54.307Z,101501.69
2023-05-22T13:50:20.798Z,101510.75
2023-05-22T13:52:47.399Z,101510.63
2023-05-22T13:55:13.847Z,101512.44
2023-05-22T13:57:40.661Z,101513.81
2023-05-22T14:00:08.963Z,101516.63
2023-05-22T14:02:35.672Z,101525.84
2023-05-22T14:05:02.267Z,101526.69
2023-05-22T14:07:28.728Z,101528.13
2023-05-22T14:09:55.222Z,101521.16
2023-05-22T14:12:21.747Z,101525.34
2023-05-22T14:14:48.353Z,101534.72
2023-05-22T14:17:14.822Z,101529.66
2023-05-22T14:19:41.345Z,101543.78
2023-05-22T14:22:07.978Z,101546.97
2023-05-22T14:24:34.500Z,101540.16
2023-05-22T14:27:00.871Z,101544.19
2023-05-22T14:29:28.364Z,101552.19
2023-05-22T14:32:01.129Z,101547.75
2023-05-22T14:34:27.551Z,101541.16
2023-05-22T14:36:56.438Z,101546.63
2023-05-22T14:39:24.585Z,101546.75
2023-05-22T14:41:54.540Z,101561.81
2023-05-22T14:44:22.527Z,101550.38
2023-05-22T14:46:51.039Z,101561.41
2023-05-22T14:49:17.690Z,101570.34
2023-05-22T14:51:48.117Z,101567.81
2023-05-22T14:54:17.957Z,101564.91
2023-05-22T14:56:45.132Z,101567.69
2023-05-22T14:59:11.976Z,101572.28
2023-05-22T15:01:39.022Z,101572.44
2023-05-22T15:04:06.027Z,101571.00
2023-05-22T15:06:32.521Z,101568.19
2023-05-22T15:08:58.953Z,101567.66
2023-05-22T15:11:26.101Z,101575.84
2023-05-22T15:13:54.332Z,101580.72
2023-05-22T15:16:22.471Z,101579.13
2023-05-22T15:18:49.159Z,101576.22
2023-05-22T15:21:15.905Z,101581.66
2023-05-22T15:23:42.914Z,101579.41
2023-05-22T15:26:09.560Z,101580.53
2023-05-22T15:28:36.067Z,101583.44
2023-05-22T15:31:02.534Z,101596.50
2023-05-22T15:33:29.041Z,101599.16
2023-05-22T15:35:55.547Z,101598.56
2023-05-22T15:38:22.039Z,101595.59
2023-05-22T15:40:48.482Z,101600.78
2023-05-22T15:43:14.995Z,101617.78
2023-05-22T15:45:42.634Z,101612.03
2023-05-22T15:48:09.452Z,101613.66
2023-05-22T15:50:36.009Z,101609.88
2023-05-22T15:53:02.559Z,101612.94
2023-05-22T15:55:29.223Z,101617.81
2023-05-22T15:57:55.789Z,101622.28
2023-05-22T16:00:22.402Z,101611.94
2023-05-22T16:02:49.348Z,101617.81
2023-05-22T16:05:15.944Z,101612.19
2023-05-22T16:07:42.516Z,101610.31
2023-05-22T16:10:09.405Z,101612.00
2023-05-22T16:12:35.953Z,101607.00
2023-05-22T16:15:04.472Z,101602.53
2023-05-22T16:17:32.529Z,101607.00
2023-05-22T16:19:58.997Z,101604.44
2023-05-22T16:22:33.015Z,101609.13
2023-05-22T16:25:03.059Z,101607.59
2023-05-22T16:27:29.579Z,101610.63
2023-05-22T16:29:56.067Z,101605.44
2023-05-22T16:32:22.540Z,101611.84
2023-05-22T16:34:49.140Z,101618.47
2023-05-22T16:37:15.869Z,101610.09
2023-05-22T16:39:45.861Z,101617.31
2023-05-22T16:42:13.037Z,101615.91
2023-05-22T16:44:39.489Z,101627.31
2023-05-22T16:47:06.070Z,101630.00
2023-05-22T16:49:32.671Z,101624.84
2023-05-22T16:51:59.125Z,101624.00
2023-05-22T16:54:25.660Z,101629.31
2023-05-22T16:56:52.172Z,101627.59
2023-05-22T16:59:19.593Z,101633.03
2023-05-22T17:01:46.701Z,101629.91
2023-05-22T17:04:15.606Z,101629.47
2023-05-22T17:06:43.321Z,101630.41
2023-05-22T17:09:10.304Z,101633.31
2023-05-22T17:11:37.704Z,101639.06
2023-05-22T17:14:04.728Z,101637.84
2023-05-22T17:16:31.574Z,101651.94
2023-05-22T17:18:58.142Z,101652.59
2023-05-22T17:21:24.712Z,101650.56
2023-05-22T17:23:51.140Z,101650.56
2023-05-22T17:26:17.564Z,101653.31
2023-05-22T17:28:44.099Z,101645.38
2023-05-22T17:31:10.781Z,101655.00
2023-05-22T17:33:37.227Z,101659.69
2023-05-22T17:36:03.929Z,101663.53
2023-05-22T17:38:30.365Z,101665.31
2023-05-22T17:40:56.855Z,101663.16
2023-05-22T17:43:23.376Z,101657.28
2023-05-22T17:45:50.577Z,101652.34
2023-05-22T17:48:23.249Z,101663.53
2023-05-22T17:50:49.851Z,101657.41
2023-05-22T17:53:20.539Z,101662.81
2023-05-22T17:55:48.488Z,101666.41
2023-05-22T17:58:16.319Z,101665.81
2023-05-22T18:00:43.197Z,101665.31
2023-05-22T18:03:09.678Z,101669.41
2023-05-22T18:05:36.204Z,101667.94
2023-05-22T18:08:02.757Z,101675.50
2023-05-22T18:10:29.368Z,101676.81
2023-05-22T18:12:55.998Z,101676.69
2023-05-22T18:15:22.558Z,101672.47
2023-05-22T18:17:49.024Z,101679.44
2023-05-22T18:20:16.720Z,101675.84
2023-05-22T18:22:43.280Z,101684.09
2023-05-22T18:25:09.924Z,101683.22
2023-05-22T18:27:36.707Z,101684.66
2023-05-22T18:30:05.167Z,101689.06
2023-05-22T18:32:32.067Z,101684.94
2023-05-22T18:34:59.693Z,101687.28
2023-05-22T18:37:26.663Z,101692.88
2023-05-22T18:39:53.072Z,101699.97
2023-05-22T18:42:19.669Z,101698.16
2023-05-22T18:44:48.209Z,101693.84
2023-05-22T18:47:15.621Z,101695.47
2023-05-22T18:49:42.276Z,101700.03
2023-05-22T18:52:08.828Z,101697.72
2023-05-22T18:54:35.287Z,101701.06
2023-05-22T18:57:01.715Z,101708.34
2023-05-22T18:59:28.146Z,101702.78
2023-05-22T19:01:54.605Z,101706.38
2023-05-22T19:04:21.139Z,101709.97
2023-05-22T19:06:47.685Z,101707.66
2023-05-22T19:09:14.202Z,101703.78
2023-05-22T19:11:40.766Z,101705.16
2023-05-22T19:14:07.218Z,101708.38
2023-05-22T19:16:33.655Z,101713.19
2023-05-22T19:19:00.225Z,101717.84
2023-05-22T19:21:26.706Z,101727.88
2023-05-22T19:23:53.170Z,101713.22
2023-05-22T19:26:19.716Z,101721.25
2023-05-22T19:28:46.222Z,101724.19
2023-05-22T19:31:12.753Z,101728.84
2023-05-22T19:33:39.353Z,101743.28
2023-05-22T19:36:06.648Z,101747.06
2023-05-22T19:38:33.338Z,101745.72
2023-05-22T19:40:59.807Z,101756.56
2023-05-22T19:43:26.443Z,101761.72
2023-05-22T19:45:53.480Z,101755.72
2023-05-22T19:48:19.991Z,101767.22
2023-05-22T19:50:46.409Z,101757.09
2023-05-22T19:53:12.882Z,101776.59
2023-05-22T19:55:39.387Z,101775.72
2023-05-22T19:58:06.010Z,101775.19
2023-05-22T20:00:33.376Z,101778.16
2023-05-22T20:03:00.008Z,101785.69
2023-05-22T20:05:26.580Z,101782.69
2023-05-22T20:07:53.089Z,101786.78
2023-05-22T20:10:19.838Z,101793.19
2023-05-22T20:12:47.138Z,101791.69
2023-05-22T20:15:14.998Z,101794.63
2023-05-22T20:17:42.189Z,101800.28
2023-05-22T20:20:09.376Z,101804.81
2023-05-22T20:22:36.114Z,101809.22
2023-05-22T20:25:05.202Z,101810.06
2023-05-22T20:27:31.948Z,101814.69
2023-05-22T20:30:00.071Z,101811.97
2023-05-22T20:32:26.975Z,101816.16
2023-05-22T20:34:55.253Z,101818.91
2023-05-22T20:37:22.183Z,101818.19
2023-05-22T20:39:50.015Z,101835.63
2023-05-22T20:42:19.235Z,101827.09
2023-05-22T20:44:46.227Z,101838.13
2023-05-22T20:47:12.777Z,101851.66
2023-05-22T20:49:39.239Z,101857.84
2023-05-22T20:52:05.813Z,101854.38
2023-05-22T20:54:34.467Z,101862.56
2023-05-22T20:57:01.714Z,101867.91
2023-05-22T20:59:28.998Z,101868.56
2023-05-22T21:01:56.973Z,101870.63
2023-05-22T21:04:24.026Z,101879.72
2023-05-22T21:06:50.961Z,101883.31
2023-05-22T21:09:17.620Z,101879.25
2023-05-22T21:11:44.137Z,101880.53
2023-05-22T21:14:10.613Z,101891.69
2023-05-22T21:16:39.282Z,101880.78
2023-05-22T21:19:07.161Z,101890.97
2023-05-22T21:21:33.773Z,101882.97
2023-05-22T21:24:00.320Z,101891.13
2023-05-22T21:26:27.453Z,101882.06
2023-05-22T21:28:54.624Z,101893.59
2023-05-22T21:31:21.203Z,101904.13
2023-05-22T21:33:47.725Z,101906.16
2023-05-22T21:36:14.169Z,101893.94
2023-05-22T21:38:40.563Z,101901.53
2023-05-22T21:41:07.016Z,101891.25
2023-05-22T21:43:33.465Z,101894.63
2023-05-22T21:45:59.968Z,101893.31
2023-05-22T21:48:26.416Z,101900.69
2023-05-22T21:50:52.885Z,101899.06
2023-05-22T21:53:19.546Z,101899.06
2023-05-22T21:55:45.971Z,101895.44
2023-05-22T21:58:13.578Z,101902.19
2023-05-22T22:00:41.113Z,101895.25
2023-05-22T22:03:07.917Z,101896.72
2023-05-22T22:05:35.820Z,101896.78
2023-05-22T22:08:02.427Z,101899.63
2023-05-22T22:10:28.908Z,101893.44
2023-05-22T22:12:55.335Z,101892.44
2023-05-22T22:15:21.823Z,101888.91
2023-05-22T22:17:48.344Z,101893.44
2023-05-22T22:20:14.925Z,101897.09
2023-05-22T22:22:41.359Z,101899.78
2023-05-22T22:25:08.277Z,101891.00
2023-05-22T22:27:34.710Z,101899.53
2023-05-22T22:30:01.960Z,101901.31
2023-05-22T22:32:28.500Z,101889.97
2023-05-22T22:34:55.118Z,101886.22
2023-05-22T22:37:21.916Z,101894.94
2023-05-22T22:39:48.417Z,101887.13
2023-05-22T22:42:14.902Z,101895.16
2023-05-22T22:44:41.393Z,101893.44
2023-05-22T22:47:07.844Z,101893.44
2023-05-22T22:49:34.352Z,101888.59
2023-05-22T22:52:00.763Z,101900.31
2023-05-22T22:54:27.297Z,101897.81
2023-05-22T22:56:53.888Z,101897.16
2023-05-22T22:59:20.302Z,101898.16
2023-05-22T23:01:46.924Z,101906.03
2023-05-22T23:04:14.022Z,101900.78
2023-05-22T23:06:43.642Z,101908.81
2023-05-22T23:09:11.188Z,101906.38
2023-05-22T23:11:38.717Z,101907.28
2023-05-22T23:14:08.380Z,101908.06
2023-05-22T23:16:40.809Z,101917.63
2023-05-22T23:19:08.843Z,101911.63
2023-05-22T23:21:35.494Z,101913.31
2023-05-22T23:24:06.594Z,101918.72
2023-05-22T23:26:33.860Z,101921.69
2023-05-22T23:29:00.488Z,101925.13
2023-05-22T23:31:30.527Z,101919.06
2023-05-22T23:33:57.876Z,101919.13
2023-05-22T23:36:24.851Z,101933.09
2023-05-22T23:38:51.536Z,101926.22
2023-05-22T23:41:18.586Z,101928.94
2023-05-22T23:43:46.134Z,101930.25
2023-05-22T23:46:13.911Z,101934.66
2023-05-22T23:48:41.614Z,101934.66
2023-05-22T23:51:14.414Z,101933.31
2023-05-22T23:53:42.070Z,101934.28
2023-05-22T23:56:08.827Z,101933.44
2023-05-22T23:58:35.401Z,101929.34
